Time;durP1;ratioP1;P1;durP2;ratioP2;P2;SDS_P1;SDS_P2;PMS_P1;PMS_P2;Temp;Humidity;BMP_temperature;BMP_pressure;BME280_temperature;BME280_humidity;BME280_pressure;Samples;Min_cycle;Max_cycle;Signal;HPM_P1;HPM_P2
2022/03/23 00:02:26;;;;;;;46.25;27.77;;;8.80;99.90;;;;;;5097044;28;20040;-73
2022/03/23 00:04:53;;;;;;;40.40;26.33;;;8.60;99.90;;;;;;5095362;28;20047;-73
2022/03/23 00:07:20;;;;;;;41.17;26.85;;;8.60;99.90;;;;;;5096867;28;20123;-73
2022/03/23 00:09:45;;;;;;;40.90;26.52;;;8.90;99.90;;;;;;5095704;28;20052;-74
2022/03/23 00:12:11;;;;;;;43.83;27.45;;;8.60;99.90;;;;;;5096804;28;20055;-73
2022/03/23 00:14:37;;;;;;;44.88;27.95;;;8.80;99.90;;;;;;5096726;28;20048;-73
2022/03/23 00:17:04;;;;;;;42.67;26.85;;;8.40;99.90;;;;;;5095527;28;20055;-74
2022/03/23 00:19:30;;;;;;;43.58;27.63;;;8.40;99.90;;;;;;5096656;28;20040;-73
2022/03/23 00:21:56;;;;;;;43.83;27.08;;;8.40;99.90;;;;;;5096630;28;20233;-73
2022/03/23 00:24:22;;;;;;;39.92;25.77;;;8.40;99.90;;;;;;5096610;28;20079;-73
2022/03/23 00:26:48;;;;;;;38.42;25.45;;;8.30;99.90;;;;;;5095735;28;20447;-73
2022/03/23 00:29:13;;;;;;;38.42;24.00;;;8.50;99.90;;;;;;5096395;28;20059;-73
2022/03/23 00:31:39;;;;;;;37.35;25.10;;;8.40;99.90;;;;;;5096377;28;20052;-73
2022/03/23 00:34:05;;;;;;;38.90;25.73;;;8.60;99.90;;;;;;5094524;28;20044;-74
2022/03/23 00:36:31;;;;;;;40.47;24.63;;;8.80;99.90;;;;;;5096371;28;20044;-73
2022/03/23 00:38:57;;;;;;;37.65;24.02;;;8.30;99.90;;;;;;5096288;28;20046;-73
2022/03/23 00:41:22;;;;;;;36.75;24.75;;;8.70;99.90;;;;;;5096261;28;20052;-74
2022/03/23 00:43:48;;;;;;;38.10;25.38;;;8.40;99.90;;;;;;5096644;28;20077;-74
2022/03/23 00:46:15;;;;;;;36.50;25.25;;;8.10;99.90;;;;;;5096206;28;20044;-74
2022/03/23 00:48:41;;;;;;;35.97;25.23;;;8.00;99.90;;;;;;5094521;28;20495;-73
2022/03/23 00:51:07;;;;;;;37.88;24.60;;;8.20;99.90;;;;;;5096478;28;20059;-73
2022/03/23 00:53:34;;;;;;;41.00;25.75;;;8.00;99.90;;;;;;5096025;28;20400;-73
2022/03/23 00:56:00;;;;;;;36.20;25.13;;;7.90;99.90;;;;;;5096029;28;20059;-73
2022/03/23 00:58:26;;;;;;;36.85;24.38;;;8.00;99.90;;;;;;5094328;28;20044;-73
2022/03/23 01:00:51;;;;;;;39.17;25.55;;;7.60;99.90;;;;;;5096059;28;20400;-73
2022/03/23 01:03:18;;;;;;;39.20;24.35;;;7.90;99.90;;;;;;5094213;28;20054;-73
2022/03/23 01:05:44;;;;;;;40.05;25.25;;;7.60;99.90;;;;;;5095801;28;20054;-73
2022/03/23 01:08:09;;;;;;;37.42;25.48;;;7.90;99.90;;;;;;5094409;28;20123;-73
2022/03/23 01:10:36;;;;;;;36.08;23.83;;;7.60;99.90;;;;;;5095834;28;20047;-74
2022/03/23 01:13:02;;;;;;;35.35;24.67;;;7.50;99.90;;;;;;5095924;28;20055;-73
2022/03/23 01:15:29;;;;;;;37.03;24.40;;;7.80;99.90;;;;;;5095674;28;20048;-73
2022/03/23 01:17:55;;;;;;;39.40;25.60;;;7.50;99.90;;;;;;5094462;28;20039;-74
2022/03/23 01:20:21;;;;;;;39.78;24.35;;;7.40;99.90;;;;;;5095488;28;20044;-73
2022/03/23 01:22:47;;;;;;;38.25;24.55;;;7.40;99.90;;;;;;5095550;28;20438;-73
2022/03/23 01:25:13;;;;;;;41.65;25.88;;;8.00;99.90;;;;;;5095849;28;20047;-74
2022/03/23 01:27:41;;;;;;;39.78;25.75;;;7.90;99.90;;;;;;5094140;28;20472;-73
2022/03/23 01:30:08;;;;;;;42.97;27.17;;;7.90;99.90;;;;;;5095341;28;20059;-74
2022/03/23 01:32:35;;;;;;;38.10;24.98;;;7.30;99.90;;;;;;5095174;28;20040;-73
2022/03/23 01:35:02;;;;;;;36.17;25.02;;;7.60;99.90;;;;;;5093690;28;20052;-73
2022/03/23 01:37:28;;;;;;;38.75;26.13;;;7.30;99.90;;;;;;5094161;28;20047;-73
2022/03/23 01:39:54;;;;;;;38.78;26.75;;;7.10;99.90;;;;;;5094118;28;20051;-73
2022/03/23 01:42:20;;;;;;;41.05;26.83;;;7.20;99.90;;;;;;5095341;28;20048;-73
2022/03/23 01:44:46;;;;;;;39.28;25.38;;;7.40;99.90;;;;;;5095579;28;20047;-73
2022/03/23 01:47:14;;;;;;;40.60;26.50;;;7.20;99.90;;;;;;5094863;28;20119;-73
2022/03/23 01:49:45;;;;;;;41.38;26.90;;;6.90;99.90;;;;;;5094426;28;20169;-73
2022/03/23 01:52:13;;;;;;;39.78;26.17;;;7.30;99.90;;;;;;5094889;28;20047;-73
2022/03/23 01:54:40;;;;;;;44.15;27.75;;;7.10;99.90;;;;;;5093967;28;20079;-73
2022/03/23 01:57:07;;;;;;;40.40;26.67;;;7.30;99.90;;;;;;5094933;28;20044;-73
2022/03/23 01:59:34;;;;;;;38.83;26.40;;;7.10;99.90;;;;;;5094705;28;20048;-73
2022/03/23 02:02:00;;;;;;;40.78;25.95;;;7.30;99.90;;;;;;5094386;28;20052;-72
2022/03/23 02:04:26;;;;;;;39.63;27.10;;;7.10;99.90;;;;;;5092853;28;20086;-72
2022/03/23 02:06:53;;;;;;;42.42;26.98;;;7.20;99.90;;;;;;5094555;28;20135;-73
2022/03/23 02:09:19;;;;;;;40.38;26.15;;;7.30;99.90;;;;;;5093333;28;20040;-72
2022/03/23 02:11:46;;;;;;;38.47;26.60;;;7.00;99.90;;;;;;5094498;28;20078;-73
2022/03/23 02:14:12;;;;;;;42.55;27.10;;;7.00;99.90;;;;;;5094385;28;20059;-72
2022/03/23 02:16:51;;;;;;;43.10;28.38;;;7.30;99.90;;;;;;5094282;28;20131;-72
2022/03/23 02:19:18;;;;;;;43.80;28.00;;;7.20;99.90;;;;;;5094095;28;20532;-72
2022/03/23 02:21:45;;;;;;;44.05;27.92;;;6.90;99.90;;;;;;5094196;28;20048;-73
2022/03/23 02:24:12;;;;;;;40.15;26.65;;;7.70;99.90;;;;;;5094275;28;20097;-73
2022/03/23 02:26:38;;;;;;;42.30;28.02;;;7.20;99.90;;;;;;5094219;28;20248;-72
2022/03/23 02:29:07;;;;;;;42.20;26.52;;;7.20;99.90;;;;;;5094378;28;20151;-73
2022/03/23 02:31:34;;;;;;;43.35;28.38;;;6.90;99.90;;;;;;5094137;28;20051;-73
2022/03/23 02:34:00;;;;;;;42.17;27.83;;;7.10;99.90;;;;;;5093918;28;20052;-72
2022/03/23 02:36:26;;;;;;;39.20;27.73;;;7.10;99.90;;;;;;5093106;28;20507;-72
2022/03/23 02:38:52;;;;;;;41.30;27.40;;;7.00;99.90;;;;;;5093981;28;20044;-73
2022/03/23 02:41:18;;;;;;;42.22;28.70;;;6.90;99.90;;;;;;5092950;28;20130;-73
2022/03/23 02:43:44;;;;;;;39.20;27.65;;;7.10;99.90;;;;;;5092870;28;20122;-73
2022/03/23 02:46:14;;;;;;;40.30;26.80;;;7.20;99.90;;;;;;5093994;28;20079;-73
2022/03/23 02:48:41;;;;;;;41.33;28.63;;;7.10;99.90;;;;;;5094403;28;20051;-72
2022/03/23 02:51:07;;;;;;;42.63;27.13;;;6.80;99.90;;;;;;5093823;28;20051;-73
2022/03/23 03:02:21;;;;;;;36.97;25.60;;;6.70;99.90;;;;;;5093748;28;20063;-73
2022/03/23 03:04:51;;;;;;;38.58;26.05;;;6.90;99.90;;;;;;5093133;28;20063;-73
2022/03/23 03:07:18;;;;;;;43.15;26.58;;;6.70;99.90;;;;;;5093621;28;20484;-73
2022/03/23 03:09:44;;;;;;;42.80;27.63;;;6.60;99.90;;;;;;5093696;28;20165;-73
2022/03/23 03:12:11;;;;;;;41.95;27.67;;;7.00;99.90;;;;;;5093719;28;20048;-73
2022/03/23 03:14:40;;;;;;;39.88;26.60;;;7.10;99.90;;;;;;5093702;28;20055;-73
2022/03/23 03:17:07;;;;;;;43.45;27.48;;;6.60;99.90;;;;;;5094106;28;20039;-72
2022/03/23 03:19:33;;;;;;;43.10;27.70;;;6.80;99.90;;;;;;5093939;28;20036;-73
2022/03/23 03:21:59;;;;;;;39.05;26.70;;;6.90;99.90;;;;;;5097738;28;20044;-73
2022/03/23 03:24:25;;;;;;;41.47;27.48;;;6.70;99.90;;;;;;5096552;28;20395;-73
2022/03/23 03:26:52;;;;;;;40.83;27.27;;;6.50;99.90;;;;;;5097603;28;20047;-73
2022/03/23 03:29:18;;;;;;;42.03;27.27;;;6.60;99.90;;;;;;5096328;28;20048;-73
2022/03/23 03:31:43;;;;;;;41.10;27.40;;;6.90;99.90;;;;;;5097592;28;20131;-73
2022/03/23 03:34:09;;;;;;;40.25;27.13;;;6.70;99.90;;;;;;5096894;28;20094;-73
2022/03/23 03:36:36;;;;;;;43.53;28.05;;;6.50;99.90;;;;;;5097795;28;20051;-74
2022/03/23 03:39:06;;;;;;;49.00;29.30;;;6.70;99.90;;;;;;5097382;28;20048;-74
2022/03/23 03:41:31;;;;;;;41.75;27.42;;;6.90;99.90;;;;;;5096498;28;20059;-73
2022/03/23 03:43:57;;;;;;;46.13;28.80;;;6.80;99.90;;;;;;5097388;28;20048;-73
2022/03/23 03:46:24;;;;;;;41.90;28.58;;;6.60;99.90;;;;;;5097257;28;20048;-73
2022/03/23 03:48:50;;;;;;;45.90;28.70;;;7.00;99.90;;;;;;5095723;28;20056;-73
2022/03/23 03:51:16;;;;;;;43.33;28.25;;;6.90;99.90;;;;;;5097242;28;20036;-73
2022/03/23 03:53:42;;;;;;;43.33;28.45;;;6.70;99.90;;;;;;5096796;28;20088;-73
2022/03/23 03:56:09;;;;;;;40.95;28.52;;;6.40;99.90;;;;;;5097199;28;20109;-73
2022/03/23 03:58:35;;;;;;;42.67;29.35;;;6.90;99.90;;;;;;5096036;28;20055;-73
2022/03/23 04:01:00;;;;;;;46.72;30.27;;;6.70;99.90;;;;;;5096227;28;20048;-73
2022/03/23 04:03:26;;;;;;;45.33;28.73;;;6.60;99.90;;;;;;5096381;28;20048;-72
2022/03/23 04:05:52;;;;;;;45.83;29.23;;;7.00;99.90;;;;;;5097050;28;20101;-73
2022/03/23 04:08:18;;;;;;;42.00;28.50;;;6.60;99.90;;;;;;5097333;28;20085;-73
2022/03/23 04:10:43;;;;;;;48.83;31.02;;;6.30;99.90;;;;;;5096915;28;20438;-73
2022/03/23 04:13:09;;;;;;;46.30;29.92;;;6.30;99.90;;;;;;5096814;28;20094;-73
2022/03/23 04:15:36;;;;;;;44.80;29.00;;;6.50;99.90;;;;;;5096732;28;20481;-73
2022/03/23 04:18:02;;;;;;;42.20;29.10;;;6.90;99.90;;;;;;5096754;28;20048;-73
2022/03/23 04:20:29;;;;;;;46.20;30.70;;;6.30;99.90;;;;;;5096900;28;20048;-72
2022/03/23 04:22:55;;;;;;;49.70;30.38;;;6.20;99.90;;;;;;5096553;28;20135;-73
2022/03/23 04:25:21;;;;;;;46.70;30.33;;;6.30;99.90;;;;;;5096619;28;20040;-73
2022/03/23 04:27:49;;;;;;;46.33;30.45;;;6.00;99.90;;;;;;5096523;28;20536;-72
2022/03/23 04:30:17;;;;;;;48.35;30.13;;;6.50;99.90;;;;;;5095896;28;20082;-73
2022/03/23 04:32:45;;;;;;;46.33;30.08;;;6.30;99.90;;;;;;5095759;28;20048;-73
2022/03/23 04:35:11;;;;;;;46.45;30.83;;;6.10;99.90;;;;;;5095726;28;20128;-73
2022/03/23 04:37:37;;;;;;;50.20;30.33;;;6.00;99.90;;;;;;5096092;28;20040;-73
2022/03/23 04:40:04;;;;;;;45.60;29.42;;;6.40;99.90;;;;;;5096298;28;20508;-73
2022/03/23 04:42:30;;;;;;;47.25;30.00;;;6.00;99.90;;;;;;5095409;28;20396;-73
2022/03/23 04:44:55;;;;;;;45.85;29.92;;;6.50;99.90;;;;;;5096022;28;20044;-73
2022/03/23 04:47:21;;;;;;;45.97;29.17;;;6.10;99.90;;;;;;5096001;28;20044;-73
2022/03/23 04:49:48;;;;;;;43.40;28.60;;;6.10;99.90;;;;;;5095822;28;20064;-72
2022/03/23 04:52:16;;;;;;;46.38;29.00;;;6.00;99.90;;;;;;5094923;28;20055;-73
2022/03/23 04:54:45;;;;;;;45.90;30.42;;;6.30;99.90;;;;;;5096007;28;20044;-73
2022/03/23 04:57:11;;;;;;;46.60;30.17;;;6.00;99.90;;;;;;5095915;28;20047;-73
2022/03/23 04:59:37;;;;;;;44.75;29.30;;;6.00;99.90;;;;;;5078378;28;20102;-73
2022/03/23 05:02:03;;;;;;;46.08;29.33;;;6.20;99.90;;;;;;5094581;28;20048;-73
2022/03/23 05:04:28;;;;;;;45.30;28.67;;;5.90;99.90;;;;;;5093970;28;20050;-72
2022/03/23 05:06:54;;;;;;;43.58;27.52;;;5.90;99.90;;;;;;5094251;28;20142;-73
2022/03/23 05:09:20;;;;;;;45.20;26.83;;;6.10;99.90;;;;;;5095926;28;20044;-73
2022/03/23 05:11:45;;;;;;;40.20;26.88;;;5.80;99.90;;;;;;5094460;28;20048;-73
2022/03/23 05:14:11;;;;;;;46.05;28.17;;;5.90;99.90;;;;;;5077896;28;20087;-72
2022/03/23 05:16:38;;;;;;;47.55;29.85;;;6.10;99.90;;;;;;5095852;28;20370;-72
2022/03/23 05:19:04;;;;;;;42.17;28.05;;;6.20;99.90;;;;;;5095519;28;20143;-72
2022/03/23 05:21:30;;;;;;;44.70;28.70;;;6.10;99.90;;;;;;5094463;28;20048;-72
2022/03/23 05:23:55;;;;;;;40.95;27.25;;;5.80;99.90;;;;;;5094195;28;20044;-72
2022/03/23 05:26:21;;;;;;;45.50;28.85;;;5.80;99.90;;;;;;5095389;28;20048;-72
2022/03/23 05:28:47;;;;;;;43.83;29.15;;;6.00;99.90;;;;;;5095285;28;20522;-73
2022/03/23 05:31:13;;;;;;;43.72;29.83;;;6.10;99.90;;;;;;5094278;28;20060;-72
2022/03/23 05:33:39;;;;;;;43.83;28.95;;;5.80;99.90;;;;;;5093339;28;20044;-72
2022/03/23 05:36:05;;;;;;;45.53;29.15;;;5.90;99.90;;;;;;5094193;28;20044;-72
2022/03/23 05:38:30;;;;;;;43.58;27.85;;;5.80;99.90;;;;;;5095062;28;20134;-72
2022/03/23 05:40:56;;;;;;;44.40;28.73;;;6.10;99.90;;;;;;5095287;28;20147;-73
2022/03/23 05:43:22;;;;;;;44.80;28.40;;;5.80;99.90;;;;;;5094090;28;20044;-72
2022/03/23 05:45:48;;;;;;;42.50;27.85;;;5.70;99.90;;;;;;5094010;28;20102;-72
2022/03/23 05:48:14;;;;;;;42.88;28.20;;;5.70;99.90;;;;;;5094725;28;20052;-73
2022/03/23 05:50:40;;;;;;;45.53;29.02;;;6.40;99.90;;;;;;5094893;28;20069;-73
2022/03/23 05:53:07;;;;;;;44.00;28.02;;;6.10;99.90;;;;;;5094327;28;20546;-72
2022/03/23 05:55:32;;;;;;;40.95;27.88;;;5.80;99.90;;;;;;5095004;28;20079;-73
2022/03/23 05:57:59;;;;;;;40.75;26.85;;;5.90;99.90;;;;;;5094953;28;20091;-73
2022/03/23 06:00:24;;;;;;;43.50;27.85;;;6.00;99.90;;;;;;5094886;28;20083;-72
2022/03/23 06:02:50;;;;;;;39.75;25.92;;;6.20;99.90;;;;;;5093652;28;20110;-73
2022/03/23 06:05:16;;;;;;;42.72;27.17;;;5.90;99.90;;;;;;5094028;28;20048;-73
2022/03/23 06:07:42;;;;;;;41.88;28.35;;;6.00;99.90;;;;;;5093785;28;20048;-73
2022/03/23 06:10:08;;;;;;;42.28;27.63;;;6.30;99.90;;;;;;5094565;28;20143;-73
2022/03/23 06:12:34;;;;;;;44.13;28.48;;;6.00;99.90;;;;;;5093512;28;20067;-72
2022/03/23 06:15:00;;;;;;;44.80;29.45;;;6.40;99.90;;;;;;5093503;28;20048;-72
2022/03/23 06:17:26;;;;;;;44.70;27.27;;;6.00;99.90;;;;;;5094401;28;20127;-73
2022/03/23 06:19:51;;;;;;;43.10;27.55;;;6.00;99.90;;;;;;5094367;28;20140;-73
2022/03/23 06:22:18;;;;;;;42.85;29.05;;;6.00;99.90;;;;;;5094354;28;20067;-72
2022/03/23 06:24:44;;;;;;;42.00;27.67;;;6.30;99.90;;;;;;5093514;28;20055;-72
2022/03/23 06:27:10;;;;;;;43.80;27.17;;;6.10;99.90;;;;;;5093443;28;20079;-72
2022/03/23 06:29:35;;;;;;;41.67;27.75;;;6.80;99.90;;;;;;5094150;28;20131;-72
2022/03/23 06:32:01;;;;;;;42.35;26.52;;;6.40;99.90;;;;;;5094185;28;20135;-72
2022/03/23 06:34:27;;;;;;;42.05;27.23;;;6.40;99.90;;;;;;5093601;28;20044;-72
2022/03/23 06:36:53;;;;;;;43.55;28.58;;;6.20;99.90;;;;;;5076377;28;20480;-72
2022/03/23 06:39:18;;;;;;;44.13;27.95;;;6.50;99.90;;;;;;5094054;28;20044;-72
2022/03/23 06:41:47;;;;;;;43.72;28.58;;;6.40;99.90;;;;;;5092940;28;20122;-72
2022/03/23 06:44:13;;;;;;;40.15;26.05;;;6.60;99.90;;;;;;5092746;28;20127;-72
2022/03/23 06:46:39;;;;;;;42.35;27.08;;;6.90;99.90;;;;;;5092779;28;20055;-72
2022/03/23 06:49:05;;;;;;;40.30;26.90;;;6.90;99.90;;;;;;5093776;28;20056;-72
2022/03/23 06:51:32;;;;;;;39.42;26.08;;;7.20;99.90;;;;;;5093881;28;20108;-72
2022/03/23 06:53:57;;;;;;;37.15;24.08;;;6.70;99.90;;;;;;5093859;28;20051;-72
2022/03/23 06:56:23;;;;;;;35.95;23.60;;;7.00;99.90;;;;;;5092178;28;20040;-72
2022/03/23 06:58:49;;;;;;;35.75;22.77;;;7.30;99.90;;;;;;5093850;28;20044;-73
2022/03/23 07:01:15;;;;;;;34.55;23.08;;;6.90;99.90;;;;;;5093882;28;20051;-72
2022/03/23 07:03:40;;;;;;;33.45;21.48;;;6.90;99.90;;;;;;5093096;28;20116;-72
2022/03/23 07:06:06;;;;;;;31.42;21.25;;;6.90;99.90;;;;;;5092603;28;20448;-72
2022/03/23 07:11:16;;;;;;;32.17;21.33;;;7.10;99.90;;;;;;5093795;28;20055;-72
2022/03/23 07:13:41;;;;;;;28.27;19.80;;;7.50;99.90;;;;;;5092580;28;20048;-72
2022/03/23 07:16:07;;;;;;;32.22;20.77;;;7.20;99.90;;;;;;5093621;28;20040;-72
2022/03/23 07:18:33;;;;;;;30.00;20.52;;;7.90;99.90;;;;;;5092469;28;20047;-72
2022/03/23 07:21:00;;;;;;;30.02;21.05;;;7.90;99.90;;;;;;5093639;28;20131;-72
2022/03/23 07:23:26;;;;;;;29.52;20.63;;;7.70;99.90;;;;;;5092409;28;20498;-72
2022/03/23 07:25:52;;;;;;;30.30;19.98;;;7.70;99.90;;;;;;5093834;28;20080;-72
2022/03/23 07:28:17;;;;;;;31.02;20.27;;;7.60;99.90;;;;;;5092267;28;20048;-71
2022/03/23 07:30:43;;;;;;;31.90;20.50;;;7.80;99.90;;;;;;5093549;28;20048;-72
2022/03/23 07:33:09;;;;;;;31.25;19.92;;;7.70;99.90;;;;;;5092876;28;20048;-71
2022/03/23 07:35:35;;;;;;;30.70;19.55;;;7.90;99.90;;;;;;5093512;28;20043;-72
2022/03/23 07:38:01;;;;;;;26.70;18.92;;;7.90;99.90;;;;;;5075524;28;20032;-72
2022/03/23 07:40:26;;;;;;;31.08;19.95;;;7.90;99.90;;;;;;5092077;28;20050;-71
2022/03/23 07:42:52;;;;;;;29.13;19.45;;;8.00;99.90;;;;;;5093431;28;20513;-71
2022/03/23 07:45:18;;;;;;;26.73;18.50;;;8.00;99.90;;;;;;5093420;28;20472;-72
2022/03/23 07:47:44;;;;;;;29.15;19.35;;;8.10;99.90;;;;;;5093150;28;20481;-72
2022/03/23 07:50:10;;;;;;;27.10;18.25;;;8.20;99.90;;;;;;5091936;28;20199;-72
2022/03/23 07:52:36;;;;;;;28.73;19.52;;;8.20;99.90;;;;;;5092224;28;20079;-72
2022/03/23 07:55:02;;;;;;;30.73;20.20;;;8.30;99.90;;;;;;5093180;28;20082;-71
2022/03/23 07:57:29;;;;;;;27.65;19.38;;;8.30;99.90;;;;;;5093131;28;20495;-72
2022/03/23 07:59:57;;;;;;;29.92;19.88;;;8.40;99.90;;;;;;5092815;28;20404;-72
2022/03/23 08:02:24;;;;;;;28.48;18.08;;;8.40;99.90;;;;;;5091969;28;20040;-72
2022/03/23 08:04:50;;;;;;;29.83;20.02;;;8.60;99.90;;;;;;5091577;28;20084;-72
2022/03/23 08:07:16;;;;;;;27.55;18.70;;;8.60;99.90;;;;;;5094258;28;20048;-71
2022/03/23 08:09:41;;;;;;;29.85;19.08;;;8.60;99.90;;;;;;5096803;28;20047;-72
2022/03/23 08:12:07;;;;;;;26.75;18.40;;;8.60;99.90;;;;;;5079003;28;20081;-72
2022/03/23 08:14:33;;;;;;;30.13;19.10;;;8.70;99.90;;;;;;5096863;28;20051;-70
2022/03/23 08:16:59;;;;;;;38.45;19.15;;;8.80;99.90;;;;;;5096981;28;20059;-70
2022/03/23 08:19:24;;;;;;;25.35;18.25;;;8.90;99.90;;;;;;5095546;28;20082;-72
2022/03/23 08:21:51;;;;;;;30.17;18.15;;;9.10;99.90;;;;;;5095449;28;20616;-71
2022/03/23 08:24:17;;;;;;;27.38;17.45;;;9.00;99.90;;;;;;5095473;28;20083;-71
2022/03/23 08:26:43;;;;;;;24.15;17.95;;;9.30;99.90;;;;;;5096526;28;20373;-71
2022/03/23 08:29:09;;;;;;;25.88;18.25;;;9.30;99.90;;;;;;5096509;28;20047;-70
2022/03/23 08:31:35;;;;;;;24.48;17.38;;;9.30;99.90;;;;;;5096490;28;20135;-71
2022/03/23 08:34:01;;;;;;;24.20;17.52;;;9.30;99.90;;;;;;5095986;28;20433;-71
2022/03/23 08:36:27;;;;;;;24.48;18.00;;;9.40;99.90;;;;;;5096287;28;20093;-72
2022/03/23 08:38:53;;;;;;;23.85;17.23;;;9.60;99.90;;;;;;5095242;28;20048;-72
2022/03/23 08:41:19;;;;;;;24.48;16.95;;;9.50;99.90;;;;;;5078725;28;20048;-72
2022/03/23 08:43:45;;;;;;;24.48;17.45;;;9.50;99.90;;;;;;5096229;28;20500;-72
2022/03/23 08:46:13;;;;;;;25.30;17.13;;;9.70;99.90;;;;;;5094949;28;20377;-72
2022/03/23 08:48:40;;;;;;;27.05;17.17;;;9.90;99.90;;;;;;5095153;28;20059;-75
2022/03/23 08:51:06;;;;;;;23.15;16.17;;;9.80;99.90;;;;;;5095669;28;20101;-75
2022/03/23 08:53:32;;;;;;;27.48;17.33;;;9.80;99.90;;;;;;5095596;28;20427;-75
2022/03/23 08:55:59;;;;;;;23.42;17.13;;;9.80;99.90;;;;;;5092895;28;20048;-72
2022/03/23 08:58:26;;;;;;;26.33;17.88;;;10.00;99.90;;;;;;5095471;28;20040;-74
2022/03/23 09:00:52;;;;;;;23.42;17.48;;;10.00;99.90;;;;;;5095464;28;20040;-76
2022/03/23 09:03:18;;;;;;;25.10;17.73;;;10.00;99.90;;;;;;5092293;28;20040;-75
2022/03/23 09:05:44;;;;;;;24.20;17.42;;;10.30;99.90;;;;;;5094429;28;20043;-77
2022/03/23 09:08:10;;;;;;;22.50;16.08;;;10.20;99.90;;;;;;5094190;28;20040;-73
2022/03/23 09:10:36;;;;;;;25.50;17.52;;;10.20;99.90;;;;;;5095452;28;20476;-75
2022/03/23 09:13:03;;;;;;;24.33;17.10;;;10.30;99.90;;;;;;5095258;28;20052;-74
2022/03/23 09:15:30;;;;;;;23.83;16.52;;;10.60;99.90;;;;;;5094235;28;20048;-75
2022/03/23 09:18:03;;;;;;;24.90;17.33;;;10.50;99.90;;;;;;5094720;28;20115;-75
2022/03/23 09:20:29;;;;;;;;;;;10.60;99.90;;;;;;5095554;28;20404;-76
2022/03/23 09:22:58;;;;;;;23.73;15.68;;;10.60;99.90;;;;;;5095077;28;20386;-75
2022/03/23 09:25:24;;;;;;;23.73;15.60;;;10.70;99.90;;;;;;5093812;28;20051;-74
2022/03/23 09:27:50;;;;;;;20.38;16.15;;;10.70;99.90;;;;;;5094840;28;20063;-76
2022/03/23 09:30:16;;;;;;;21.65;16.10;;;10.90;99.90;;;;;;5093820;28;20035;-75
2022/03/23 09:32:44;;;;;;;21.20;14.95;;;11.00;99.90;;;;;;5095043;28;20043;-76
2022/03/23 09:35:10;;;;;;;20.38;15.73;;;11.00;99.90;;;;;;5094371;28;20127;-76
2022/03/23 09:37:48;;;;;;;22.45;16.08;;;11.30;99.90;;;;;;5094640;28;20039;-76
2022/03/23 09:40:25;;;;;;;20.13;15.90;;;11.20;99.90;;;;;;5093733;28;20071;-76
2022/03/23 09:42:58;;;;;;;20.60;15.27;;;11.30;99.90;;;;;;5094781;28;20040;-75
2022/03/23 09:47:59;;;;;;;21.48;15.23;;;11.40;99.90;;;;;;5091898;28;20480;-76
2022/03/23 09:50:31;;;;;;;18.67;14.65;;;11.50;99.90;;;;;;5094748;28;20047;-78
2022/03/23 09:52:58;;;;;;;19.40;15.05;;;11.60;99.90;;;;;;5094538;28;20036;-77
2022/03/23 09:55:24;;;;;;;18.60;14.48;;;11.70;99.90;;;;;;5094471;28;20555;-76
2022/03/23 09:57:57;;;;;;;20.20;14.90;;;11.80;99.90;;;;;;5093177;28;20072;-76
2022/03/23 10:00:27;;;;;;;21.17;14.82;;;11.90;99.90;;;;;;5093295;28;20122;-76
2022/03/23 10:03:12;;;;;;;20.23;14.52;;;11.90;99.90;;;;;;5094389;28;20081;-77
2022/03/23 10:06:05;;;;;;;19.15;14.85;;;12.00;99.90;;;;;;5093725;28;20051;-76
2022/03/23 10:09:09;;;;;;;18.67;14.20;;;12.10;99.90;;;;;;5117366;27;20051;-75
2022/03/23 10:12:25;;;;;;;18.90;13.60;;;12.20;99.90;;;;;;5092714;28;20083;-75
2022/03/23 10:15:32;;;;;;;20.63;14.95;;;12.30;98.70;;;;;;5040609;28;20037;-76
2022/03/23 10:18:35;;;;;;;17.15;13.90;;;12.40;97.60;;;;;;5061947;28;20044;-76
2022/03/23 10:21:01;;;;;;;17.90;13.20;;;12.50;96.20;;;;;;5091573;28;20085;-76
2022/03/23 10:23:26;;;;;;;17.63;13.23;;;12.60;94.10;;;;;;5075982;28;20051;-76
2022/03/23 10:25:52;;;;;;;17.30;13.38;;;12.60;92.10;;;;;;5092974;28;20036;-77
2022/03/23 10:28:18;;;;;;;18.55;13.93;;;12.70;91.30;;;;;;5091179;28;20046;-73
2022/03/23 10:30:46;;;;;;;18.20;14.20;;;12.80;90.90;;;;;;5087617;28;20040;-74
2022/03/23 10:33:22;;;;;;;16.48;12.95;;;12.90;90.20;;;;;;5086504;28;20145;-73
2022/03/23 10:35:48;;;;;;;17.90;13.00;;;12.90;87.40;;;;;;5085477;28;20492;-74
2022/03/23 10:38:21;;;;;;;17.90;12.35;;;13.00;86.00;;;;;;5082620;28;20523;-73
2022/03/23 10:40:50;;;;;;;16.05;12.75;;;13.10;85.60;;;;;;5077542;28;20048;-72
2022/03/23 10:43:20;;;;;;;16.75;12.70;;;13.10;83.90;;;;;;5084663;28;20082;-72
2022/03/23 10:45:47;;;;;;;15.85;12.80;;;13.20;82.50;;;;;;5084164;28;20082;-73
2022/03/23 10:48:17;;;;;;;15.50;12.30;;;13.20;80.90;;;;;;5080755;28;20044;-73
2022/03/23 10:51:10;;;;;;;15.05;12.57;;;13.30;80.00;;;;;;5088089;28;20446;-73
2022/03/23 10:53:41;;;;;;;17.25;12.93;;;13.40;81.90;;;;;;5114661;27;20051;-73
2022/03/23 10:56:08;;;;;;;16.20;12.02;;;13.40;79.10;;;;;;5083926;28;20051;-73
2022/03/23 10:58:35;;;;;;;20.88;13.02;;;13.40;78.60;;;;;;5066116;28;20411;-73
2022/03/23 11:01:09;;;;;;;17.67;12.38;;;13.50;77.90;;;;;;5086776;28;20059;-73
2022/03/23 11:03:40;;;;;;;16.40;12.93;;;13.50;77.10;;;;;;5084011;28;20044;-73
2022/03/23 11:06:11;;;;;;;17.30;13.02;;;13.60;76.30;;;;;;5084578;28;20066;-73
2022/03/23 11:08:37;;;;;;;16.48;12.40;;;13.70;75.80;;;;;;5084638;28;20047;-73
2022/03/23 11:16:38;;;;;;;16.95;12.88;;;13.80;76.30;;;;;;5084816;28;20088;-73
2022/03/23 11:19:08;;;;;;;15.90;11.73;;;13.90;75.20;;;;;;5080043;28;20051;-73
2022/03/23 11:21:54;;;;;;;15.57;11.27;;;13.90;75.40;;;;;;5084413;28;20083;-73
2022/03/23 11:24:23;;;;;;;13.23;10.57;;;14.00;74.00;;;;;;5082373;28;20048;-73
2022/03/23 11:26:50;;;;;;;13.45;9.60;;;14.00;71.20;;;;;;5078761;28;20508;-74
2022/03/23 11:29:17;;;;;;;13.85;10.88;;;14.10;70.80;;;;;;5075913;28;20044;-73
2022/03/23 11:31:47;;;;;;;14.52;10.40;;;14.30;69.70;;;;;;5067213;28;20054;-73
2022/03/23 11:34:18;;;;;;;13.48;9.98;;;14.20;68.70;;;;;;5078410;28;20083;-73
2022/03/23 11:36:46;;;;;;;12.73;10.23;;;14.20;68.20;;;;;;5078330;28;20550;-73
2022/03/23 11:39:12;;;;;;;10.38;9.32;;;14.30;68.10;;;;;;5080747;28;20071;-74
2022/03/23 11:41:41;;;;;;;14.75;9.95;;;14.30;68.50;;;;;;5085211;28;20476;-73
2022/03/23 11:44:07;;;;;;;12.93;9.20;;;14.30;67.20;;;;;;5087902;28;20476;-73
2022/03/23 11:46:33;;;;;;;10.45;8.68;;;14.40;67.30;;;;;;5086896;28;20044;-74
2022/03/23 11:49:23;;;;;;;13.07;9.45;;;14.50;66.20;;;;;;5088459;28;20056;-74
2022/03/23 11:52:19;;;;;;;13.75;8.57;;;14.50;66.60;;;;;;5089702;28;20475;-73
2022/03/23 11:57:54;;;;;;;13.07;8.30;;;14.60;64.60;;;;;;5085146;28;20598;-73
2022/03/23 12:00:21;;;;;;;13.30;8.50;;;14.70;63.80;;;;;;5085543;28;20040;-75
2022/03/23 12:02:47;;;;;;;15.18;9.32;;;14.70;63.30;;;;;;5091372;28;20476;-75
2022/03/23 12:05:35;;;;;;;13.07;8.57;;;14.80;63.40;;;;;;5093307;28;20088;-75
2022/03/23 12:08:01;;;;;;;13.32;9.10;;;14.80;65.00;;;;;;5086780;28;20089;-73
2022/03/23 12:10:31;;;;;;;13.02;9.20;;;14.80;63.60;;;;;;5087432;28;20047;-74
2022/03/23 12:13:12;;;;;;;14.32;8.95;;;14.90;63.50;;;;;;5092351;28;20044;-73
2022/03/23 12:15:57;;;;;;;12.65;7.38;;;15.00;64.30;;;;;;5089338;28;20048;-74
2022/03/23 12:19:06;;;;;;;14.05;7.15;;;15.00;63.60;;;;;;5093043;28;20065;-69
2022/03/23 12:21:45;;;;;;;13.30;7.22;;;15.00;63.30;;;;;;5091472;28;20530;-69
2022/03/23 12:24:25;;;;;;;14.27;6.82;;;15.10;62.30;;;;;;5096372;28;20073;-70
2022/03/23 12:26:54;;;;;;;13.35;7.15;;;15.20;62.70;;;;;;5095370;28;20035;-69
2022/03/23 12:29:35;;;;;;;13.35;7.90;;;15.20;62.60;;;;;;5093793;28;20043;-70
2022/03/23 12:32:08;;;;;;;16.30;8.50;;;15.30;63.40;;;;;;5093895;28;20047;-70
2022/03/23 12:34:35;;;;;;;14.73;7.50;;;15.30;62.50;;;;;;5095819;28;20043;-69
2022/03/23 12:37:16;;;;;;;13.77;8.52;;;15.30;61.70;;;;;;5096069;28;20040;-69
2022/03/23 12:39:44;;;;;;;12.40;7.55;;;15.40;62.20;;;;;;5093847;28;20035;-69
2022/03/23 12:42:13;;;;;;;11.98;7.15;;;15.40;61.90;;;;;;5094877;28;20478;-69
2022/03/23 12:45:01;;;;;;;14.77;6.90;;;15.40;60.80;;;;;;5093433;28;20159;-70
2022/03/23 12:47:29;;;;;;;14.27;7.35;;;15.40;61.30;;;;;;5094414;28;20476;-69
2022/03/23 12:58:24;;;;;;;11.85;7.50;;;15.70;60.10;;;;;;5093218;28;20048;-70
2022/03/23 13:00:52;;;;;;;12.70;7.95;;;15.70;59.40;;;;;;5094599;28;20063;-69
2022/03/23 13:03:22;;;;;;;14.00;7.80;;;15.70;60.20;;;;;;5092830;28;20225;-70
2022/03/23 13:06:00;;;;;;;12.43;7.85;;;15.70;60.60;;;;;;5093657;28;20064;-70
2022/03/23 13:08:35;;;;;;;13.65;8.40;;;15.80;60.50;;;;;;5093654;28;20028;-70
2022/03/23 13:11:03;;;;;;;10.50;7.18;;;15.80;60.20;;;;;;5091807;28;20039;-69
2022/03/23 13:13:35;;;;;;;10.73;7.30;;;15.80;60.30;;;;;;5095414;28;20363;-70